Lake George, Michigan
Current Conditions -  °F | °C
As of 3:15 AM on Thursday 29 Jan 2015 (Local Time) from KMOP Reporting Station
Overcast Overcast  
Wind Chill: 18°   Ceiling: 11000
Heat Index: 26°   Visibility: 10mi
Dew Point: 18°   Wind: 8mph
Humidity: 70%   Direction: 120°ESE
Pressure: 29.9"   Gusts: NA
Location:  43.96°N, 84.95°W
Report Text: KMOP 290815Z AUTO 12007KT 10SM OVC110 M03/M08 A2990 RMK AO2 T10321080
Loading
Personal Weather Stations






























Interactive Weather Map New forecast layout! Learn more

10-Day Weather Forecast

Advertisements
Track Severe Weather on mobile